Flight Track Log - Related Links

Times and Time Zones

All times are in EDT time to prevent confusion due to time zone crossing. See the CCA4232 flight status page for this flight to view local times or setup timezone preferences in your user account.

Time Position Orientation Groundspeed Altitude Reporting Facility
EDT Latitude Longitude Course Direction KTS MPH feet Rate Location/Type
Mon 04:18:00 AM 37.8795 106.2397 195° South  Level Estimated
Mon 04:19:00 AM 37.7908 106.2092 195° South  Level Estimated
Mon 04:20:00 AM 37.7021 106.1787 195° South  Level Estimated
Mon 04:21:00 AM 37.6134 106.1483 195° South  Level Estimated
Mon 04:22:00 AM 37.5247 106.1180 195° South  Level Estimated
Mon 04:23:00 AM 37.4360 106.0878 195° South  Level Estimated
Mon 04:24:00 AM 37.3473 106.0577 195° South  Level Estimated
Mon 04:25:00 AM 37.2585 106.0276 195° South  Level Estimated
Mon 04:26:00 AM 37.1698 105.9976 195° South  Level Estimated
Mon 04:27:00 AM 37.0811 105.9677 195° South  Level Estimated
Mon 04:28:00 AM 36.9923 105.9378 195° South  Level Estimated
Mon 04:29:00 AM 36.9036 105.9080 195° South  Level Estimated
Mon 04:30:00 AM 36.8148 105.8783 195° South  Level Estimated
Mon 04:31:00 AM 36.7260 105.8486 195° South  Level Estimated
Mon 04:32:00 AM 36.6372 105.8190 195° South  Level Estimated
Mon 04:33:00 AM 36.5485 105.7895 195° South  Level Estimated
Mon 04:34:00 AM 36.4596 105.7600 195° South  Level Estimated
Mon 04:35:00 AM 36.3708 105.7306 195° South  Level Estimated
Mon 04:36:00 AM 36.2820 105.7013 195° South  Level Estimated
Mon 04:37:00 AM 36.1932 105.6721 195° South  Level Estimated
Mon 04:38:00 AM 36.1044 105.6429 195° South  Level Estimated
Mon 04:39:00 AM 36.0156 105.6137 195° South  Level Estimated
Mon 04:40:00 AM 35.9267 105.5847 195° South  Level Estimated
Mon 04:41:00 AM 35.8379 105.5557 195° South  Level Estimated
Mon 04:42:00 AM 35.7490 105.5268 195° South  Level Estimated
Mon 04:43:00 AM 35.6602 105.4979 195° South  Level Estimated
Mon 04:44:00 AM 35.5713 105.4691 195° South  Level Estimated
Mon 04:45:00 AM 35.4824 105.4404 195° South  Level Estimated
Mon 04:46:00 AM 35.3936 105.4117 195° South  Level Estimated
Mon 04:47:00 AM 35.3047 105.3831 195° South  Level Estimated
Mon 04:48:00 AM 35.2158 105.3546 195° South  Level Estimated
Mon 04:49:00 AM 35.1269 105.3261 195° South  Level Estimated
Mon 04:50:00 AM 35.0380 105.2977 195° South  Level Estimated
Mon 04:51:00 AM 34.9491 105.2693 195° South  Level Estimated
Mon 04:52:00 AM 34.8601 105.2410 195° South  Level Estimated
Mon 04:53:00 AM 34.7712 105.2128 195° South  Level Estimated
Mon 04:54:00 AM 34.6823 105.1846 195° South  Level Estimated
Mon 04:55:00 AM 34.5933 105.1565 195° South  Level Estimated
Mon 04:56:00 AM 34.5044 105.1284 195° South  Level Estimated
Mon 04:57:00 AM 34.4154 105.1004 195° South  Level Estimated
Mon 04:58:00 AM 34.3265 105.0725 195° South  Level Estimated
Mon 04:59:00 AM 34.2375 105.0446 195° South  Level Estimated
Mon 05:00:00 AM 34.1485 105.0168 195° South  Level Estimated
Mon 05:01:00 AM 34.0596 104.9890 194° South  Level Estimated
Mon 05:02:00 AM 33.9706 104.9613 194° South  Level Estimated
Mon 05:03:00 AM 33.8816 104.9337 194° South  Level Estimated
Mon 05:04:00 AM 33.7926 104.9061 194° South  Level Estimated
Mon 05:05:00 AM 33.7036 104.8786 194° South  Level Estimated
Mon 05:06:00 AM 33.6146 104.8511 194° South  Level Estimated
Mon 05:07:00 AM 33.5256 104.8237 194° South  Level Estimated
Mon 05:08:00 AM 33.4366 104.7963 194° South  Level Estimated
Mon 05:09:00 AM 33.3475 104.7690 194° South  Level Estimated
Mon 05:10:00 AM 33.2585 104.7418 194° South  Level Estimated
Mon 05:11:00 AM 33.1695 104.7146 194° South  Level Estimated
Mon 05:12:00 AM 33.0804 104.6875 194° South  Level Estimated
Mon 05:13:00 AM 32.9914 104.6604 194° South  Level Estimated
Mon 05:14:00 AM 32.9023 104.6333 194° South  Level Estimated
Mon 05:15:00 AM 32.8133 104.6064 194° South  Level Estimated
Mon 05:16:00 AM 32.7242 104.5795 194° South  Level Estimated
Mon 05:17:00 AM 32.6351 104.5526 194° South  Level Estimated
Mon 05:18:00 AM 32.5460 104.5258 194° South  Level Estimated
Mon 05:19:00 AM 32.4570 104.4990 194° South  Level Estimated
Mon 05:20:00 AM 32.3679 104.4723 194° South  Level Estimated
Mon 05:21:00 AM 32.2788 104.4457 194° South  Level Estimated
Mon 05:22:00 AM 32.1897 104.4191 194° South  Level Estimated
Mon 05:23:00 AM 32.1006 104.3925 194° South  Level Estimated
Mon 05:24:00 AM 32.0114 104.3660 194° South  Level Estimated
Mon 05:25:00 AM 31.9223 104.3396 194° South  Level Estimated
Mon 05:26:00 AM 31.8332 104.3132 194° South  Level Estimated
Mon 05:27:00 AM 31.7441 104.2869 194° South  Level Estimated
Mon 05:28:00 AM 31.6549 104.2606 194° South  Level Estimated
Mon 05:29:00 AM 31.5658 104.2343 194° South  Level Estimated
Mon 05:30:00 AM 31.4767 104.2081 194° South  Level Estimated
Mon 05:31:00 AM 31.3875 104.1820 194° South  Level Estimated
Mon 05:32:00 AM 31.2984 104.1559 194° South  Level Estimated
Mon 05:33:00 AM 31.2092 104.1299 194° South  Level Estimated
Mon 05:34:00 AM 31.1200 104.1039 194° South  Level Estimated
Mon 05:35:00 AM 31.0309 104.0779 194° South  Level Estimated
Mon 05:36:00 AM 30.9417 104.0520 194° South  Level Estimated
Mon 05:37:00 AM 30.8525 104.0262 194° South  Level Estimated
Mon 05:38:00 AM 30.7633 104.0004 194° South  Level Estimated
Mon 05:39:00 AM 30.6741 103.9746 194° South  Level Estimated
Mon 05:40:00 AM 30.5849 103.9489 194° South  Level Estimated
Mon 05:41:00 AM 30.5785 103.9471 194° South  Level Estimated
Mon 05:42:00 AM 30.5785 103.9471 240° Southwest  Level Estimated
Mon 05:43:00 AM 30.5785 103.9471 240° Southwest  Level Estimated
Mon 05:44:00 AM 30.5785 103.9471 240° Southwest  Level Estimated
Mon 05:45:00 AM 30.5785 103.9471 240° Southwest  Level Estimated
Mon 05:46:00 AM 30.5785 103.9471 240° Southwest  Level Estimated
Mon 05:47:00 AM 30.5785 103.9471 240° Southwest  Level Estimated
Mon 05:48:00 AM 30.5785 103.9471 240° Southwest  Level Estimated

Login

Don't have an account? Register now (free) for customized features, flight alerts, and more!